createdAt,value
2018-03-14T00:00:12.422Z,90.43
2018-03-14T00:01:12.572Z,90.33
2018-03-14T00:02:12.727Z,90.81
2018-03-14T00:03:12.870Z,90.90
2018-03-14T00:04:13.021Z,90.33
2018-03-14T00:05:13.171Z,90.24
2018-03-14T00:06:13.322Z,90.81
2018-03-14T00:07:13.478Z,89.95
2018-03-14T00:08:13.620Z,89.76
2018-03-14T00:09:13.774Z,90.43
2018-03-14T00:10:13.929Z,90.62
2018-03-14T00:11:14.074Z,90.14
2018-03-14T00:12:14.230Z,89.76
2018-03-14T00:13:14.370Z,89.76
2018-03-14T00:14:14.507Z,89.95
2018-03-14T00:15:14.660Z,90.24
2018-03-14T00:16:14.809Z,90.81
2018-03-14T00:17:14.959Z,90.33
2018-03-14T00:18:15.107Z,90.38
2018-03-14T00:19:15.262Z,89.86
2018-03-14T00:20:15.437Z,90.14
2018-03-14T00:21:15.561Z,90.33
2018-03-14T00:22:15.707Z,90.81
2018-03-14T00:23:15.856Z,90.57
2018-03-14T00:24:16.007Z,90.67
2018-03-14T00:25:16.166Z,90.29
2018-03-14T00:26:16.307Z,90.57
2018-03-14T00:27:16.460Z,91.09
2018-03-14T00:28:16.611Z,91.19
2018-03-14T00:29:16.821Z,90.86
2018-03-14T00:30:16.912Z,91.56
2018-03-14T00:31:17.059Z,91.38
2018-03-14T00:32:17.210Z,91.94
2018-03-14T00:33:17.366Z,91.33
2018-03-14T00:34:17.520Z,91.28
2018-03-14T00:35:17.665Z,91.28
2018-03-14T00:36:17.814Z,91.09
2018-03-14T00:37:17.966Z,91.00
2018-03-14T00:38:18.116Z,91.09
2018-03-14T00:39:18.267Z,90.90
2018-03-14T00:40:18.417Z,91.28
2018-03-14T00:41:18.567Z,90.90
2018-03-14T00:42:18.719Z,90.90
2018-03-14T00:43:18.866Z,91.00
2018-03-14T00:44:19.030Z,91.09
2018-03-14T00:45:19.166Z,91.38
2018-03-14T00:46:19.318Z,91.47
2018-03-14T00:47:19.466Z,91.75
2018-03-14T00:48:19.625Z,91.56
2018-03-14T00:49:19.772Z,91.75
2018-03-14T00:50:19.921Z,91.94
2018-03-14T00:51:20.069Z,91.85
2018-03-14T00:52:20.223Z,91.38
2018-03-14T00:53:20.828Z,91.38
2018-03-14T00:54:20.521Z,90.81
2018-03-14T00:55:20.674Z,91.38
2018-03-14T00:56:20.826Z,91.75
2018-03-14T00:57:20.975Z,91.38
2018-03-14T00:58:21.122Z,91.09
2018-03-14T00:59:21.278Z,91.38
2018-03-14T01:00:21.428Z,91.19
2018-03-14T01:01:21.573Z,91.38
2018-03-14T01:02:21.725Z,90.90
2018-03-14T01:03:21.884Z,90.90
2018-03-14T01:04:22.033Z,90.90
2018-03-14T01:05:22.176Z,90.33
2018-03-14T01:06:22.332Z,90.52
2018-03-14T01:07:22.472Z,90.71
2018-03-14T01:08:22.624Z,90.62
2018-03-14T01:09:22.803Z,90.33
2018-03-14T01:10:22.952Z,90.24
2018-03-14T01:11:23.104Z,90.33
2018-03-14T01:12:23.261Z,89.76
2018-03-14T01:13:23.406Z,89.67
2018-03-14T01:14:23.563Z,89.67
2018-03-14T01:15:23.710Z,89.76
2018-03-14T01:16:23.863Z,89.67
2018-03-14T01:17:24.010Z,89.39
2018-03-14T01:18:24.155Z,89.39
2018-03-14T01:19:24.310Z,89.76
2018-03-14T01:20:24.459Z,89.95
2018-03-14T01:21:24.673Z,90.05
2018-03-14T01:22:24.757Z,90.33
2018-03-14T01:23:24.907Z,90.81
2018-03-14T01:24:25.057Z,90.81
2018-03-14T01:25:25.211Z,90.52
2018-03-14T01:26:25.367Z,90.33
2018-03-14T01:27:25.510Z,90.62
2018-03-14T01:28:25.660Z,90.90
2018-03-14T01:29:25.835Z,91.28
2018-03-14T01:30:26.212Z,91.19
2018-03-14T01:31:26.112Z,91.56
2018-03-14T01:32:26.264Z,91.99
2018-03-14T01:33:26.666Z,91.94
2018-03-14T01:34:26.574Z,91.75
2018-03-14T01:35:26.714Z,92.14
2018-03-14T01:36:26.865Z,91.94
2018-03-14T01:37:27.014Z,91.94
2018-03-14T01:38:27.164Z,91.85
2018-03-14T01:39:27.317Z,91.94
2018-03-14T01:40:27.465Z,91.85
2018-03-14T01:41:27.615Z,92.14
2018-03-14T01:42:27.766Z,92.42
2018-03-14T01:43:27.916Z,91.85
2018-03-14T01:44:28.068Z,91.85
2018-03-14T01:45:28.217Z,92.71
2018-03-14T01:46:28.369Z,91.56
2018-03-14T01:47:28.518Z,91.75
2018-03-14T01:48:28.678Z,92.52
2018-03-14T01:49:28.813Z,92.23
2018-03-14T01:50:28.969Z,91.94
2018-03-14T01:51:29.116Z,92.71
2018-03-14T01:52:29.265Z,92.42
2018-03-14T01:53:29.417Z,91.75
2018-03-14T01:54:29.567Z,92.52
2018-03-14T01:55:29.724Z,92.52
2018-03-14T01:56:29.868Z,92.23
2018-03-14T01:57:30.023Z,92.23
2018-03-14T01:58:30.167Z,92.04
2018-03-14T01:59:30.323Z,91.85
2018-03-14T02:00:30.487Z,91.85
2018-03-14T02:01:30.633Z,92.52
2018-03-14T02:02:30.782Z,92.23
2018-03-14T02:03:30.933Z,92.42
2018-03-14T02:04:31.086Z,92.52
2018-03-14T02:05:31.234Z,92.33
2018-03-14T02:06:31.382Z,92.61
2018-03-14T02:07:31.542Z,92.42
2018-03-14T02:08:31.683Z,92.61
2018-03-14T02:09:31.832Z,92.80
2018-03-14T02:10:32.417Z,92.61
2018-03-14T02:11:32.137Z,91.85
2018-03-14T02:12:32.285Z,91.94
2018-03-14T02:13:32.439Z,92.23
2018-03-14T02:14:32.582Z,91.94
2018-03-14T02:15:32.741Z,92.04
2018-03-14T02:16:33.234Z,91.66
2018-03-14T02:17:33.040Z,92.23
2018-03-14T02:18:33.187Z,92.42
2018-03-14T02:19:33.339Z,91.94
2018-03-14T02:20:33.489Z,92.14
2018-03-14T02:21:33.639Z,92.04
2018-03-14T02:22:33.789Z,91.75
2018-03-14T02:23:33.948Z,91.85
2018-03-14T02:24:34.090Z,91.75
2018-03-14T02:25:34.510Z,91.75
2018-03-14T02:26:34.393Z,91.38
2018-03-14T02:27:34.547Z,91.85
2018-03-14T02:28:34.692Z,92.23
2018-03-14T02:29:34.845Z,91.85
2018-03-14T02:30:34.995Z,91.75
2018-03-14T02:31:35.144Z,92.23
2018-03-14T02:32:35.300Z,92.23
2018-03-14T02:33:35.442Z,91.66
2018-03-14T02:34:35.601Z,91.85
2018-03-14T02:35:35.790Z,91.75
2018-03-14T02:36:35.898Z,91.85
2018-03-14T02:37:36.046Z,91.85
2018-03-14T02:38:36.195Z,91.56
2018-03-14T02:39:36.347Z,91.66
2018-03-14T02:40:36.497Z,91.66
2018-03-14T02:41:36.652Z,91.66
2018-03-14T02:42:36.801Z,91.66
2018-03-14T02:43:36.948Z,91.66
2018-03-14T02:44:37.106Z,91.75
2018-03-14T02:45:37.249Z,91.75
2018-03-14T02:46:37.397Z,91.85
2018-03-14T02:47:37.548Z,91.56
2018-03-14T02:48:37.700Z,91.75
2018-03-14T02:49:37.851Z,91.66
2018-03-14T02:50:37.999Z,91.66
2018-03-14T02:51:38.152Z,91.94
2018-03-14T02:52:38.304Z,91.66
2018-03-14T02:53:38.451Z,91.94
2018-03-14T02:54:38.602Z,92.04
2018-03-14T02:55:38.752Z,92.04
2018-03-14T02:56:38.907Z,91.28
2018-03-14T02:57:39.054Z,91.38
2018-03-14T02:58:39.202Z,91.19
2018-03-14T02:59:39.354Z,91.19
2018-03-14T03:00:39.509Z,91.38
2018-03-14T03:01:39.658Z,91.38
2018-03-14T03:02:39.823Z,91.75
2018-03-14T03:03:39.959Z,92.04
2018-03-14T03:04:40.102Z,91.94
2018-03-14T03:06:40.393Z,91.85
2018-03-14T03:07:40.542Z,91.56
2018-03-14T03:08:40.976Z,91.56
2018-03-14T03:09:40.887Z,91.66
2018-03-14T03:10:40.997Z,91.66
2018-03-14T03:11:41.145Z,91.66
2018-03-14T03:12:41.302Z,91.47
2018-03-14T03:13:41.443Z,91.85
2018-03-14T03:14:41.592Z,91.75
2018-03-14T03:15:41.742Z,91.47
2018-03-14T03:16:41.896Z,91.85
2018-03-14T03:17:42.044Z,91.94
2018-03-14T03:18:42.191Z,91.66
2018-03-14T03:19:42.345Z,91.85
2018-03-14T03:20:42.493Z,92.23
2018-03-14T03:21:42.642Z,91.75
2018-03-14T03:22:42.795Z,91.56
2018-03-14T03:23:42.942Z,91.56
2018-03-14T03:24:43.094Z,92.42
2018-03-14T03:25:43.243Z,92.71
2018-03-14T03:26:43.396Z,92.42
2018-03-14T03:27:43.546Z,92.23
2018-03-14T03:28:43.698Z,91.85
2018-03-14T03:29:43.845Z,92.14
2018-03-14T03:30:43.998Z,91.75
2018-03-14T03:31:44.146Z,91.75
2018-03-14T03:32:44.301Z,91.56
2018-03-14T03:33:44.456Z,91.75
2018-03-14T03:34:44.597Z,92.04
2018-03-14T03:35:44.750Z,91.75
2018-03-14T03:36:44.897Z,91.28
2018-03-14T03:37:45.049Z,90.90
2018-03-14T03:38:45.201Z,91.00
2018-03-14T03:39:45.350Z,91.38
2018-03-14T03:40:45.505Z,91.47
2018-03-14T03:41:45.651Z,91.94
2018-03-14T03:42:45.808Z,91.66
2018-03-14T03:43:45.962Z,91.66
2018-03-14T03:44:46.106Z,91.75
2018-03-14T03:45:46.499Z,91.85
2018-03-14T03:46:46.403Z,91.66
2018-03-14T03:47:46.560Z,91.56
2018-03-14T03:48:46.717Z,91.75
2018-03-14T03:49:46.858Z,91.94
2018-03-14T03:50:47.008Z,91.75
2018-03-14T03:51:47.159Z,91.94
2018-03-14T03:52:47.305Z,91.66
2018-03-14T03:53:47.459Z,91.75
2018-03-14T03:54:47.607Z,91.94
2018-03-14T03:55:47.757Z,92.61
2018-03-14T03:56:47.909Z,92.33
2018-03-14T03:57:48.063Z,91.75
2018-03-14T03:58:48.210Z,91.56
2018-03-14T03:59:48.360Z,92.04
2018-03-14T04:00:48.516Z,91.85
2018-03-14T04:01:48.659Z,91.75
2018-03-14T04:02:48.815Z,91.85
2018-03-14T04:03:48.970Z,91.66
2018-03-14T04:04:49.110Z,92.14
2018-03-14T04:05:49.263Z,92.04
2018-03-14T04:06:49.411Z,91.56
2018-03-14T04:07:49.567Z,91.38
2018-03-14T04:08:49.736Z,90.90
2018-03-14T04:09:49.893Z,90.81
2018-03-14T04:10:50.037Z,91.19
2018-03-14T04:11:50.204Z,90.52
2018-03-14T04:12:50.331Z,90.81
2018-03-14T04:13:50.480Z,90.81
2018-03-14T04:14:50.635Z,90.33
2018-03-14T04:15:50.785Z,89.86
2018-03-14T04:16:50.938Z,89.95
2018-03-14T04:17:51.107Z,90.05
2018-03-14T04:18:51.234Z,89.67
2018-03-14T04:19:51.388Z,90.14
2018-03-14T04:20:51.536Z,90.05
2018-03-14T04:21:51.690Z,89.76
2018-03-14T04:22:52.092Z,90.24
2018-03-14T04:23:52.022Z,90.33
2018-03-14T04:24:52.141Z,90.33
2018-03-14T04:25:52.302Z,90.43
2018-03-14T04:26:52.445Z,90.33
2018-03-14T04:27:52.594Z,90.43
2018-03-14T04:28:52.757Z,91.00
2018-03-14T04:29:52.884Z,90.33
2018-03-14T04:30:53.041Z,90.81
2018-03-14T04:31:53.190Z,90.71
2018-03-14T04:32:53.340Z,90.81
2018-03-14T04:33:53.489Z,90.81
2018-03-14T04:34:53.638Z,90.43
2018-03-14T04:35:53.791Z,90.62
2018-03-14T04:36:53.938Z,90.43
2018-03-14T04:37:54.091Z,90.24
2018-03-14T04:38:54.240Z,90.43
2018-03-14T04:39:54.389Z,90.33
2018-03-14T04:40:54.551Z,90.52
2018-03-14T04:41:54.686Z,91.00
2018-03-14T04:42:54.835Z,90.52
2018-03-14T04:43:54.991Z,90.05
2018-03-14T04:44:55.133Z,89.76
2018-03-14T04:45:55.283Z,89.95
2018-03-14T04:46:55.436Z,89.95
2018-03-14T04:47:55.589Z,90.05
2018-03-14T04:48:55.739Z,89.76
2018-03-14T04:49:55.889Z,89.76
2018-03-14T04:50:56.040Z,89.58
2018-03-14T04:51:56.188Z,89.10
2018-03-14T04:52:56.343Z,89.48
2018-03-14T04:53:56.492Z,89.67
2018-03-14T04:54:56.644Z,89.67
2018-03-14T04:55:56.792Z,89.95
2018-03-14T04:56:56.938Z,89.76
2018-03-14T04:57:57.095Z,90.05
2018-03-14T04:58:57.238Z,89.76
2018-03-14T04:59:57.390Z,90.14
2018-03-14T05:00:57.539Z,89.48
2018-03-14T05:01:57.692Z,89.58
2018-03-14T05:02:57.842Z,89.67
2018-03-14T05:03:57.989Z,89.67
2018-03-14T05:04:58.142Z,89.29
2018-03-14T05:05:58.295Z,88.91
2018-03-14T05:06:58.442Z,88.91
2018-03-14T05:07:58.595Z,88.81
2018-03-14T05:08:58.749Z,89.10
2018-03-14T05:09:58.899Z,89.00
2018-03-14T05:10:59.046Z,89.29
2018-03-14T05:11:59.197Z,88.91
2018-03-14T05:12:59.348Z,89.20
2018-03-14T05:13:59.499Z,88.72
2018-03-14T05:14:59.648Z,89.20
2018-03-14T05:15:59.802Z,89.20
2018-03-14T05:16:59.955Z,89.20
2018-03-14T05:19:00.246Z,88.91
2018-03-14T05:20:00.405Z,88.43
2018-03-14T05:21:00.555Z,88.53
2018-03-14T05:22:00.699Z,88.43
2018-03-14T05:23:00.847Z,88.43
2018-03-14T05:24:00.996Z,88.81
2018-03-14T05:25:01.164Z,88.15
2018-03-14T05:26:01.299Z,88.24
2018-03-14T05:27:01.452Z,87.87
2018-03-14T05:28:01.602Z,88.10
2018-03-14T05:29:01.751Z,87.82
2018-03-14T05:30:01.906Z,87.43
2018-03-14T05:31:02.058Z,88.20
2018-03-14T05:32:02.202Z,87.34
2018-03-14T05:33:02.355Z,88.06
2018-03-14T05:34:02.504Z,88.01
2018-03-14T05:35:02.652Z,87.43
2018-03-14T05:36:02.809Z,87.39
2018-03-14T05:37:02.955Z,88.10
2018-03-14T05:38:03.105Z,88.29
2018-03-14T05:39:03.260Z,88.29
2018-03-14T05:40:03.407Z,88.29
2018-03-14T05:41:03.567Z,88.06
2018-03-14T05:42:03.704Z,87.68
2018-03-14T05:43:03.852Z,87.68
2018-03-14T05:44:04.006Z,88.24
2018-03-14T05:45:04.155Z,87.58
2018-03-14T05:46:04.309Z,87.68
2018-03-14T05:47:04.460Z,87.77
2018-03-14T05:48:04.611Z,87.58
2018-03-14T05:49:04.761Z,87.58
2018-03-14T05:50:04.910Z,87.34
2018-03-14T05:51:05.063Z,87.43
2018-03-14T05:52:05.211Z,87.43
2018-03-14T05:53:05.363Z,87.43
2018-03-14T05:54:05.513Z,87.43
2018-03-14T05:55:05.675Z,86.87
2018-03-14T05:56:05.817Z,87.15
2018-03-14T05:57:05.969Z,87.24
2018-03-14T05:58:06.119Z,87.62
2018-03-14T05:59:06.268Z,87.77
2018-03-14T06:00:06.417Z,87.49
2018-03-14T06:02:06.711Z,88.20
2018-03-14T06:03:06.860Z,87.72
2018-03-14T06:04:07.008Z,87.43
2018-03-14T06:05:07.165Z,87.49
2018-03-14T06:06:07.317Z,87.68
2018-03-14T06:07:07.466Z,87.96
2018-03-14T06:08:07.614Z,87.68
2018-03-14T06:09:07.765Z,87.39
2018-03-14T06:10:07.922Z,87.77
2018-03-14T06:11:08.072Z,87.96
2018-03-14T06:12:08.222Z,88.24
2018-03-14T06:13:08.370Z,87.68
2018-03-14T06:14:08.523Z,88.06
2018-03-14T06:15:08.676Z,88.15
2018-03-14T06:16:08.828Z,88.06
2018-03-14T06:17:08.977Z,88.06
2018-03-14T06:18:09.126Z,87.87
2018-03-14T06:19:09.276Z,88.43
2018-03-14T06:20:09.429Z,87.96
2018-03-14T06:21:09.579Z,88.06
2018-03-14T06:22:09.728Z,88.24
2018-03-14T06:23:09.878Z,88.34
2018-03-14T06:24:10.030Z,88.24
2018-03-14T06:25:10.184Z,88.06
2018-03-14T06:26:10.332Z,88.20
2018-03-14T06:27:10.484Z,88.15
2018-03-14T06:28:10.632Z,87.96
2018-03-14T06:29:10.782Z,87.34
2018-03-14T06:30:10.938Z,87.43
2018-03-14T06:31:11.085Z,87.15
2018-03-14T06:32:11.234Z,87.05
2018-03-14T06:33:11.383Z,87.53
2018-03-14T06:34:11.540Z,86.68
2018-03-14T06:35:11.947Z,86.49
2018-03-14T06:36:11.883Z,86.30
2018-03-14T06:37:12.001Z,86.68
2018-03-14T06:38:12.376Z,85.91
2018-03-14T06:39:12.276Z,86.01
2018-03-14T06:40:12.421Z,85.82
2018-03-14T06:41:12.830Z,86.68
2018-03-14T06:42:12.725Z,85.91
2018-03-14T06:43:12.873Z,85.25
2018-03-14T06:44:13.026Z,84.78
2018-03-14T06:45:13.180Z,84.97
2018-03-14T06:46:13.333Z,85.16
2018-03-14T06:47:13.476Z,85.06
2018-03-14T06:48:13.626Z,85.44
2018-03-14T06:49:13.777Z,85.44
2018-03-14T06:50:13.928Z,84.97
2018-03-14T06:51:14.078Z,84.78
2018-03-14T06:52:14.230Z,84.78
2018-03-14T06:53:14.625Z,85.63
2018-03-14T06:54:14.532Z,85.82
2018-03-14T06:55:14.682Z,85.63
2018-03-14T06:56:14.836Z,85.44
2018-03-14T06:57:14.990Z,85.25
2018-03-14T06:58:15.138Z,86.01
2018-03-14T06:59:15.282Z,85.63
2018-03-14T07:00:15.444Z,85.72
2018-03-14T07:01:15.589Z,85.91
2018-03-14T07:02:15.738Z,85.63
2018-03-14T07:03:15.891Z,85.63
2018-03-14T07:04:16.045Z,86.01
2018-03-14T07:05:16.191Z,85.63
2018-03-14T07:06:16.345Z,86.58
2018-03-14T07:07:16.493Z,85.82
2018-03-14T07:08:16.645Z,86.01
2018-03-14T07:09:16.796Z,86.58
2018-03-14T07:10:16.950Z,86.68
2018-03-14T07:11:17.098Z,86.30
2018-03-14T07:12:17.251Z,87.05
2018-03-14T07:13:17.399Z,87.24
2018-03-14T07:14:17.549Z,88.29
2018-03-14T07:15:17.704Z,88.10
2018-03-14T07:16:17.855Z,88.24
2018-03-14T07:17:18.013Z,88.24
2018-03-14T07:18:18.397Z,88.43
2018-03-14T07:19:18.302Z,88.06
2018-03-14T07:20:18.456Z,88.86
2018-03-14T07:21:18.611Z,88.91
2018-03-14T07:22:18.758Z,89.05
2018-03-14T07:23:18.915Z,88.76
2018-03-14T07:24:19.065Z,89.14
2018-03-14T07:25:19.211Z,88.48
2018-03-14T07:26:19.361Z,87.91
2018-03-14T07:27:19.511Z,88.10
2018-03-14T07:28:19.663Z,87.82
2018-03-14T07:29:19.816Z,87.24
2018-03-14T07:30:19.964Z,87.24
2018-03-14T07:31:20.117Z,86.39
2018-03-14T07:32:20.268Z,85.72
2018-03-14T07:34:20.565Z,85.20
2018-03-14T07:35:20.715Z,84.06
2018-03-14T07:36:20.884Z,83.01
2018-03-14T07:37:21.026Z,83.20
2018-03-14T07:38:21.166Z,84.16
2018-03-14T07:39:21.319Z,83.11
2018-03-14T07:40:21.477Z,83.30
2018-03-14T07:41:21.623Z,82.35
2018-03-14T07:42:21.770Z,82.35
2018-03-14T07:43:21.926Z,82.58
2018-03-14T07:44:22.075Z,82.96
2018-03-14T07:45:22.227Z,82.10
2018-03-14T07:46:22.376Z,82.10
2018-03-14T07:47:22.526Z,83.25
2018-03-14T07:48:22.681Z,82.29
2018-03-14T07:49:22.844Z,81.44
2018-03-14T07:50:22.988Z,82.10
2018-03-14T07:51:23.140Z,81.25
2018-03-14T07:52:23.290Z,80.96
2018-03-14T07:53:23.440Z,80.77
2018-03-14T07:54:23.592Z,81.44
2018-03-14T07:55:23.745Z,83.34
2018-03-14T07:56:23.901Z,83.72
2018-03-14T07:57:24.046Z,84.20
2018-03-14T07:58:24.541Z,83.59
2018-03-14T07:59:24.351Z,83.44
2018-03-14T08:00:24.504Z,82.64
2018-03-14T08:01:24.658Z,82.82
2018-03-14T08:02:24.823Z,83.30
2018-03-14T08:03:24.956Z,82.73
2018-03-14T08:04:25.120Z,82.64
2018-03-14T08:05:25.269Z,82.26
2018-03-14T08:06:25.417Z,81.78
2018-03-14T08:07:25.570Z,81.68
2018-03-14T08:08:25.725Z,82.16
2018-03-14T08:09:25.872Z,82.07
2018-03-14T08:10:26.035Z,82.73
2018-03-14T08:11:26.178Z,83.59
2018-03-14T08:12:26.336Z,83.30
2018-03-14T08:13:26.551Z,82.45
2018-03-14T08:14:26.629Z,82.35
2018-03-14T08:15:26.783Z,82.45
2018-03-14T08:16:26.930Z,82.92
2018-03-14T08:17:27.088Z,82.92
2018-03-14T08:18:27.233Z,83.39
2018-03-14T08:19:27.386Z,82.73
2018-03-14T08:20:27.535Z,83.39
2018-03-14T08:21:27.742Z,83.11
2018-03-14T08:22:27.835Z,83.49
2018-03-14T08:23:28.009Z,83.11
2018-03-14T08:24:28.150Z,83.49
2018-03-14T08:25:28.300Z,83.78
2018-03-14T08:26:28.453Z,83.30
2018-03-14T08:27:28.607Z,83.78
2018-03-14T08:28:28.756Z,83.01
2018-03-14T08:29:28.904Z,82.82
2018-03-14T08:30:29.055Z,82.64
2018-03-14T08:31:29.230Z,82.26
2018-03-14T08:32:29.356Z,82.64
2018-03-14T08:33:29.505Z,83.30
2018-03-14T08:34:29.669Z,84.06
2018-03-14T08:35:29.807Z,83.11
2018-03-14T08:36:29.959Z,82.92
2018-03-14T08:37:30.110Z,82.54
2018-03-14T08:38:30.517Z,83.49
2018-03-14T08:39:30.415Z,83.11
2018-03-14T08:40:30.566Z,83.78
2018-03-14T08:41:30.775Z,83.20
2018-03-14T08:42:30.863Z,83.78
2018-03-14T08:43:31.013Z,83.20
2018-03-14T08:44:31.175Z,82.54
2018-03-14T08:45:31.315Z,82.64
2018-03-14T08:46:31.464Z,82.82
2018-03-14T08:47:31.614Z,82.82
2018-03-14T08:48:31.765Z,81.97
2018-03-14T08:49:31.916Z,82.82
2018-03-14T08:50:32.071Z,82.73
2018-03-14T08:51:32.220Z,83.11
2018-03-14T08:52:32.371Z,82.92
2018-03-14T08:53:32.518Z,82.45
2018-03-14T08:54:32.664Z,82.54
2018-03-14T08:55:32.814Z,82.64
2018-03-14T08:56:32.979Z,82.58
2018-03-14T08:57:33.131Z,82.49
2018-03-14T08:58:33.279Z,82.01
2018-03-14T08:59:33.466Z,82.87
2018-03-14T09:00:33.593Z,82.29
2018-03-14T09:01:33.746Z,81.92
2018-03-14T09:02:33.899Z,80.96
2018-03-14T09:03:34.053Z,80.96
2018-03-14T09:04:34.205Z,79.92
2018-03-14T09:05:34.357Z,80.40
2018-03-14T09:06:34.509Z,80.02
2018-03-14T09:07:34.659Z,80.21
2018-03-14T09:08:34.813Z,79.73
2018-03-14T09:09:34.962Z,80.49
2018-03-14T09:10:35.118Z,80.11
2018-03-14T09:11:35.263Z,80.49
2018-03-14T09:12:35.413Z,79.44
2018-03-14T09:13:35.567Z,78.69
2018-03-14T09:14:35.722Z,78.78
2018-03-14T09:15:35.876Z,78.34
2018-03-14T09:16:36.019Z,79.01
2018-03-14T09:17:36.171Z,78.44
2018-03-14T09:18:36.560Z,77.77
2018-03-14T09:19:36.484Z,77.49
2018-03-14T09:20:36.603Z,76.73
2018-03-14T09:21:36.994Z,77.17
2018-03-14T09:22:36.906Z,77.64
2018-03-14T09:23:37.061Z,77.45
2018-03-14T09:24:37.208Z,78.02
2018-03-14T09:25:37.368Z,77.73
2018-03-14T09:26:37.525Z,77.83
2018-03-14T09:27:37.669Z,77.92
2018-03-14T09:28:37.824Z,77.97
2018-03-14T09:29:37.971Z,78.44
2018-03-14T09:30:38.118Z,78.97
2018-03-14T09:31:38.271Z,78.82
2018-03-14T09:32:38.419Z,77.49
2018-03-14T09:33:38.573Z,77.68
2018-03-14T09:34:38.724Z,77.77
2018-03-14T09:35:38.873Z,77.30
2018-03-14T09:36:39.026Z,77.20
2018-03-14T09:37:39.176Z,76.92
2018-03-14T09:38:39.338Z,76.35
2018-03-14T09:39:39.481Z,76.82
2018-03-14T09:40:39.633Z,76.73
2018-03-14T09:41:39.795Z,76.73
2018-03-14T09:42:39.937Z,76.73
2018-03-14T09:43:40.086Z,76.06
2018-03-14T09:44:40.239Z,76.25
2018-03-14T09:45:40.393Z,75.87
2018-03-14T09:46:40.543Z,76.35
2018-03-14T09:47:40.690Z,76.54
2018-03-14T09:48:40.841Z,77.01
2018-03-14T09:49:41.001Z,77.30
2018-03-14T09:50:41.143Z,76.44
2018-03-14T09:51:41.297Z,76.25
2018-03-14T09:52:41.448Z,76.25
2018-03-14T09:53:41.607Z,75.87
2018-03-14T09:54:41.754Z,75.02
2018-03-14T09:55:41.913Z,75.30
2018-03-14T09:56:42.060Z,74.96
2018-03-14T09:57:42.212Z,74.20
2018-03-14T09:58:42.368Z,74.20
2018-03-14T09:59:42.511Z,73.82
2018-03-14T10:00:42.672Z,74.29
2018-03-14T10:01:42.818Z,74.39
2018-03-14T10:02:42.973Z,74.29
2018-03-14T10:03:43.118Z,74.39
2018-03-14T10:04:43.270Z,74.20
2018-03-14T10:05:43.428Z,74.20
2018-03-14T10:06:43.573Z,74.48
2018-03-14T10:07:43.729Z,74.48
2018-03-14T10:08:43.882Z,74.44
2018-03-14T10:09:44.031Z,75.34
2018-03-14T10:10:44.186Z,75.02
2018-03-14T10:11:44.342Z,74.39
2018-03-14T10:12:44.492Z,74.39
2018-03-14T10:13:44.639Z,73.25
2018-03-14T10:14:44.789Z,73.25
2018-03-14T10:15:44.951Z,73.15
2018-03-14T10:16:45.099Z,73.63
2018-03-14T10:17:45.251Z,73.34
2018-03-14T10:18:45.407Z,73.34
2018-03-14T10:19:45.555Z,73.25
2018-03-14T10:20:45.706Z,73.06
2018-03-14T10:21:45.861Z,73.06
2018-03-14T10:22:46.009Z,73.15
2018-03-14T10:23:46.164Z,73.15
2018-03-14T10:24:46.324Z,72.96
2018-03-14T10:25:46.604Z,72.30
2018-03-14T10:26:46.620Z,72.11
2018-03-14T10:27:46.775Z,72.58
2018-03-14T10:28:46.935Z,71.72
2018-03-14T10:29:47.086Z,72.39
2018-03-14T10:30:47.231Z,72.20
2018-03-14T10:31:47.388Z,72.77
2018-03-14T10:32:47.543Z,72.77
2018-03-14T10:33:47.691Z,73.53
2018-03-14T10:34:47.849Z,74.07
2018-03-14T10:35:47.997Z,74.82
2018-03-14T10:36:48.151Z,75.96
2018-03-14T10:37:48.302Z,75.96
2018-03-14T10:39:48.599Z,75.68
2018-03-14T10:40:48.801Z,75.30
2018-03-14T10:41:48.906Z,75.30
2018-03-14T10:42:49.055Z,75.78
2018-03-14T10:43:49.215Z,75.11
2018-03-14T10:44:49.363Z,75.11
2018-03-14T10:45:49.512Z,74.63
2018-03-14T10:46:49.662Z,75.30
2018-03-14T10:47:49.859Z,74.92
2018-03-14T10:48:50.019Z,75.21
2018-03-14T10:49:50.160Z,75.30
2018-03-14T10:50:50.315Z,74.26
2018-03-14T10:51:50.496Z,74.54
2018-03-14T10:52:50.636Z,74.44
2018-03-14T10:53:50.785Z,74.44
2018-03-14T10:54:50.941Z,73.88
2018-03-14T10:55:51.092Z,73.21
2018-03-14T10:56:51.244Z,73.21
2018-03-14T10:57:51.398Z,73.59
2018-03-14T10:58:51.549Z,73.49
2018-03-14T10:59:51.700Z,73.59
2018-03-14T11:00:51.856Z,74.26
2018-03-14T11:01:52.012Z,74.35
2018-03-14T11:02:52.153Z,73.69
2018-03-14T11:03:52.571Z,73.30
2018-03-14T11:04:52.461Z,73.30
2018-03-14T11:05:52.618Z,73.49
2018-03-14T11:06:52.771Z,73.11
2018-03-14T11:07:52.959Z,73.02
2018-03-14T11:08:53.080Z,73.30
2018-03-14T11:09:53.224Z,72.92
2018-03-14T11:10:53.429Z,72.83
2018-03-14T11:11:53.503Z,73.02
2018-03-14T11:12:53.668Z,72.83
2018-03-14T11:13:53.808Z,72.92
2018-03-14T11:14:53.963Z,72.74
2018-03-14T11:15:54.120Z,73.21
2018-03-14T11:16:54.272Z,73.69
2018-03-14T11:17:54.422Z,73.02
2018-03-14T11:18:54.562Z,72.58
2018-03-14T11:19:54.716Z,72.30
2018-03-14T11:20:54.868Z,71.63
2018-03-14T11:21:55.009Z,71.34
2018-03-14T11:22:55.171Z,71.63
2018-03-14T11:23:55.329Z,71.34
2018-03-14T11:24:55.486Z,71.25
2018-03-14T11:25:55.637Z,71.15
2018-03-14T11:26:55.783Z,71.63
2018-03-14T11:27:55.943Z,71.15
2018-03-14T11:28:56.092Z,71.06
2018-03-14T11:29:56.239Z,71.53
2018-03-14T11:30:56.392Z,71.34
2018-03-14T11:31:56.557Z,72.77
2018-03-14T11:32:56.715Z,72.77
2018-03-14T11:33:56.906Z,71.86
2018-03-14T11:34:57.036Z,72.05
2018-03-14T11:35:57.185Z,71.38
2018-03-14T11:36:57.343Z,70.43
2018-03-14T11:37:57.493Z,70.62
2018-03-14T11:38:57.645Z,71.19
2018-03-14T11:39:57.807Z,71.53
2018-03-14T11:40:57.961Z,71.15
2018-03-14T11:41:58.098Z,71.44
2018-03-14T11:42:58.250Z,71.76
2018-03-14T11:43:58.406Z,71.25
2018-03-14T11:44:58.557Z,72.01
2018-03-14T11:45:58.704Z,71.28
2018-03-14T11:46:58.858Z,71.00
2018-03-14T11:47:59.024Z,70.33
2018-03-14T11:48:59.168Z,70.90
2018-03-14T11:49:59.333Z,70.90
2018-03-14T11:50:59.473Z,70.81
2018-03-14T11:51:59.626Z,70.72
2018-03-14T11:52:59.784Z,71.09
2018-03-14T11:53:59.930Z,71.28
2018-03-14T11:55:00.081Z,71.47
2018-03-14T11:56:00.233Z,70.90
2018-03-14T11:57:00.388Z,71.86
2018-03-14T11:58:00.541Z,71.19
2018-03-14T11:59:00.688Z,71.38
2018-03-14T12:00:00.843Z,70.90
2018-03-14T12:01:00.996Z,70.72
2018-03-14T12:02:01.143Z,70.62
2018-03-14T12:03:01.298Z,71.00
2018-03-14T12:04:01.453Z,70.33
2018-03-14T12:05:01.650Z,70.33
2018-03-14T12:06:01.764Z,70.72
2018-03-14T12:07:01.904Z,69.00
2018-03-14T12:08:02.055Z,69.00
2018-03-14T12:09:02.219Z,70.14
2018-03-14T12:10:02.360Z,69.95
2018-03-14T12:11:02.511Z,69.95
2018-03-14T12:12:02.923Z,69.38
2018-03-14T12:13:02.818Z,69.48
2018-03-14T12:14:02.971Z,69.57
2018-03-14T12:15:03.124Z,69.13
2018-03-14T12:16:03.277Z,68.56
2018-03-14T12:17:03.433Z,68.84
2018-03-14T12:18:03.582Z,68.75
2018-03-14T12:19:03.738Z,69.48
2018-03-14T12:20:03.896Z,70.08
2018-03-14T12:21:04.048Z,69.38
2018-03-14T12:22:04.203Z,70.14
2018-03-14T12:23:04.358Z,69.76
2018-03-14T12:24:04.504Z,70.33
2018-03-14T12:25:04.653Z,70.52
2018-03-14T12:26:04.805Z,70.24
2018-03-14T12:27:04.959Z,70.97
2018-03-14T12:28:05.115Z,71.09
2018-03-14T12:29:05.270Z,71.82
2018-03-14T12:30:05.429Z,71.82
2018-03-14T12:31:05.576Z,71.82
2018-03-14T12:32:05.732Z,71.72
2018-03-14T12:33:05.878Z,72.77
2018-03-14T12:34:06.033Z,72.30
2018-03-14T12:35:06.184Z,71.82
2018-03-14T12:36:06.335Z,71.72
2018-03-14T12:37:06.488Z,72.77
2018-03-14T12:38:06.639Z,72.77
2018-03-14T12:39:06.799Z,72.86
2018-03-14T12:40:06.951Z,72.49
2018-03-14T12:41:07.098Z,71.91
2018-03-14T12:42:07.252Z,71.67
2018-03-14T12:43:07.406Z,71.47
2018-03-14T12:44:07.556Z,71.28
2018-03-14T12:45:07.710Z,70.43
2018-03-14T12:46:08.180Z,70.43
2018-03-14T12:47:08.028Z,70.81
2018-03-14T12:48:08.177Z,70.90
2018-03-14T12:49:08.615Z,71.09
2018-03-14T12:50:08.482Z,70.90
2018-03-14T12:51:08.635Z,70.62
2018-03-14T12:52:08.798Z,70.43
2018-03-14T12:53:08.951Z,69.38
2018-03-14T12:54:09.102Z,69.76
2018-03-14T12:55:09.247Z,70.05
2018-03-14T12:56:09.398Z,69.95
2018-03-14T12:57:09.562Z,68.90
2018-03-14T12:58:09.703Z,69.00
2018-03-14T12:59:09.873Z,68.90